sensor_id;sensor_type;location;lat;lon;timestamp;temperature;humidity
20610;DHT22;10463;52.378;9.688;2023-08-06T00:00:59;29.20;30.10
20610;DHT22;10463;52.378;9.688;2023-08-06T00:03:45;29.10;30.00
20610;DHT22;10463;52.378;9.688;2023-08-06T00:06:30;29.10;30.70
20610;DHT22;10463;52.378;9.688;2023-08-06T00:09:14;29.10;30.00
20610;DHT22;10463;52.378;9.688;2023-08-06T00:11:59;29.10;30.10
20610;DHT22;10463;52.378;9.688;2023-08-06T00:14:43;29.10;30.00
20610;DHT22;10463;52.378;9.688;2023-08-06T00:17:28;29.10;30.00
20610;DHT22;10463;52.378;9.688;2023-08-06T00:20:14;29.10;30.00
20610;DHT22;10463;52.378;9.688;2023-08-06T00:22:59;29.10;30.00
20610;DHT22;10463;52.378;9.688;2023-08-06T00:25:44;29.10;30.00
20610;DHT22;10463;52.378;9.688;2023-08-06T00:28:28;29.10;30.70
20610;DHT22;10463;52.378;9.688;2023-08-06T00:31:13;29.10;30.10
20610;DHT22;10463;52.378;9.688;2023-08-06T00:33:57;29.10;30.80
20610;DHT22;10463;52.378;9.688;2023-08-06T00:36:43;29.10;30.10
20610;DHT22;10463;52.378;9.688;2023-08-06T00:39:28;29.10;30.10
20610;DHT22;10463;52.378;9.688;2023-08-06T00:42:12;29.10;30.10
20610;DHT22;10463;52.378;9.688;2023-08-06T00:44:57;29.10;30.10
20610;DHT22;10463;52.378;9.688;2023-08-06T00:47:43;29.10;30.00
20610;DHT22;10463;52.378;9.688;2023-08-06T00:50:29;29.00;30.00
20610;DHT22;10463;52.378;9.688;2023-08-06T00:53:16;29.10;30.00
20610;DHT22;10463;52.378;9.688;2023-08-06T00:56:01;29.00;30.00
20610;DHT22;10463;52.378;9.688;2023-08-06T00:58:46;29.00;30.00
20610;DHT22;10463;52.378;9.688;2023-08-06T01:01:32;29.00;30.00
20610;DHT22;10463;52.378;9.688;2023-08-06T01:04:17;29.00;30.00
20610;DHT22;10463;52.378;9.688;2023-08-06T01:07:12;29.00;30.00
20610;DHT22;10463;52.378;9.688;2023-08-06T01:10:15;29.00;30.00
20610;DHT22;10463;52.378;9.688;2023-08-06T01:13:11;29.00;30.70
20610;DHT22;10463;52.378;9.688;2023-08-06T01:15:59;29.00;30.00
20610;DHT22;10463;52.378;9.688;2023-08-06T01:18:46;29.00;30.00
20610;DHT22;10463;52.378;9.688;2023-08-06T01:21:34;29.00;30.00
20610;DHT22;10463;52.378;9.688;2023-08-06T01:24:19;29.00;30.10
20610;DHT22;10463;52.378;9.688;2023-08-06T01:27:10;29.00;30.10
20610;DHT22;10463;52.378;9.688;2023-08-06T01:30:02;29.00;30.10
20610;DHT22;10463;52.378;9.688;2023-08-06T01:32:53;29.00;30.80
20610;DHT22;10463;52.378;9.688;2023-08-06T01:35:40;29.00;30.10
20610;DHT22;10463;52.378;9.688;2023-08-06T01:38:28;29.00;30.10
20610;DHT22;10463;52.378;9.688;2023-08-06T01:41:13;29.00;30.10
20610;DHT22;10463;52.378;9.688;2023-08-06T01:43:58;29.00;30.10
20610;DHT22;10463;52.378;9.688;2023-08-06T01:46:42;29.00;30.10
20610;DHT22;10463;52.378;9.688;2023-08-06T01:49:27;29.00;30.10
20610;DHT22;10463;52.378;9.688;2023-08-06T01:52:15;29.00;30.10
20610;DHT22;10463;52.378;9.688;2023-08-06T01:55:01;29.00;30.10
20610;DHT22;10463;52.378;9.688;2023-08-06T01:57:46;29.00;30.10
20610;DHT22;10463;52.378;9.688;2023-08-06T02:00:31;28.90;30.00
20610;DHT22;10463;52.378;9.688;2023-08-06T02:03:15;28.90;30.00
20610;DHT22;10463;52.378;9.688;2023-08-06T02:06:00;28.90;30.00
20610;DHT22;10463;52.378;9.688;2023-08-06T02:08:45;28.90;30.00
20610;DHT22;10463;52.378;9.688;2023-08-06T02:11:31;28.90;30.00
20610;DHT22;10463;52.378;9.688;2023-08-06T02:14:15;28.90;30.00
20610;DHT22;10463;52.378;9.688;2023-08-06T02:17:00;28.90;30.00
20610;DHT22;10463;52.378;9.688;2023-08-06T02:19:45;28.90;30.00
20610;DHT22;10463;52.378;9.688;2023-08-06T02:22:29;28.90;30.80
20610;DHT22;10463;52.378;9.688;2023-08-06T02:25:14;28.90;30.10
20610;DHT22;10463;52.378;9.688;2023-08-06T02:28:03;28.90;30.00
20610;DHT22;10463;52.378;9.688;2023-08-06T02:30:50;28.90;30.30
20610;DHT22;10463;52.378;9.688;2023-08-06T02:33:35;28.90;30.00
20610;DHT22;10463;52.378;9.688;2023-08-06T02:36:19;28.90;30.10
20610;DHT22;10463;52.378;9.688;2023-08-06T02:39:04;28.90;30.00
20610;DHT22;10463;52.378;9.688;2023-08-06T02:41:48;28.90;30.10
20610;DHT22;10463;52.378;9.688;2023-08-06T02:44:35;28.90;30.10
20610;DHT22;10463;52.378;9.688;2023-08-06T02:47:20;28.90;30.10
20610;DHT22;10463;52.378;9.688;2023-08-06T02:50:06;28.90;30.00
20610;DHT22;10463;52.378;9.688;2023-08-06T02:52:51;28.90;30.10
20610;DHT22;10463;52.378;9.688;2023-08-06T02:55:36;28.90;30.10
20610;DHT22;10463;52.378;9.688;2023-08-06T02:58:26;28.90;30.10
20610;DHT22;10463;52.378;9.688;2023-08-06T03:01:23;28.90;30.10
20610;DHT22;10463;52.378;9.688;2023-08-06T03:04:15;28.90;30.10
20610;DHT22;10463;52.378;9.688;2023-08-06T03:07:03;28.80;30.10
20610;DHT22;10463;52.378;9.688;2023-08-06T03:09:56;28.90;30.10
20610;DHT22;10463;52.378;9.688;2023-08-06T03:12:40;28.80;30.00
20610;DHT22;10463;52.378;9.688;2023-08-06T03:15:25;28.90;30.10
20610;DHT22;10463;52.378;9.688;2023-08-06T03:18:13;28.80;30.00
20610;DHT22;10463;52.378;9.688;2023-08-06T03:20:58;28.80;30.10
20610;DHT22;10463;52.378;9.688;2023-08-06T03:23:47;28.80;30.00
20610;DHT22;10463;52.378;9.688;2023-08-06T03:26:34;28.80;30.00
20610;DHT22;10463;52.378;9.688;2023-08-06T03:29:19;28.80;30.00
20610;DHT22;10463;52.378;9.688;2023-08-06T03:32:07;28.80;30.10
20610;DHT22;10463;52.378;9.688;2023-08-06T03:34:54;28.80;30.10
20610;DHT22;10463;52.378;9.688;2023-08-06T03:37:40;28.80;30.00
20610;DHT22;10463;52.378;9.688;2023-08-06T03:40:25;28.80;30.10
20610;DHT22;10463;52.378;9.688;2023-08-06T03:43:10;28.80;30.00
20610;DHT22;10463;52.378;9.688;2023-08-06T03:45:55;28.80;30.10
20610;DHT22;10463;52.378;9.688;2023-08-06T03:48:40;28.80;30.10
20610;DHT22;10463;52.378;9.688;2023-08-06T03:51:26;28.80;30.00
20610;DHT22;10463;52.378;9.688;2023-08-06T03:54:12;28.80;30.10
20610;DHT22;10463;52.378;9.688;2023-08-06T03:56:57;28.80;30.00
20610;DHT22;10463;52.378;9.688;2023-08-06T03:59:41;28.80;30.10
20610;DHT22;10463;52.378;9.688;2023-08-06T04:02:26;28.80;30.10
20610;DHT22;10463;52.378;9.688;2023-08-06T04:05:12;28.80;30.10
20610;DHT22;10463;52.378;9.688;2023-08-06T04:07:58;28.80;30.00
20610;DHT22;10463;52.378;9.688;2023-08-06T04:10:44;28.80;30.00
20610;DHT22;10463;52.378;9.688;2023-08-06T04:13:29;28.80;30.00
20610;DHT22;10463;52.378;9.688;2023-08-06T04:16:15;28.70;30.00
20610;DHT22;10463;52.378;9.688;2023-08-06T04:19:00;28.70;30.00
20610;DHT22;10463;52.378;9.688;2023-08-06T04:21:44;28.70;30.00
20610;DHT22;10463;52.378;9.688;2023-08-06T04:24:31;28.70;30.00
20610;DHT22;10463;52.378;9.688;2023-08-06T04:27:16;28.70;30.00
20610;DHT22;10463;52.378;9.688;2023-08-06T04:30:03;28.70;30.00
20610;DHT22;10463;52.378;9.688;2023-08-06T04:32:50;28.70;30.00
20610;DHT22;10463;52.378;9.688;2023-08-06T04:35:35;28.70;30.00
20610;DHT22;10463;52.378;9.688;2023-08-06T04:38:20;28.70;30.00
20610;DHT22;10463;52.378;9.688;2023-08-06T04:41:06;28.70;30.00
20610;DHT22;10463;52.378;9.688;2023-08-06T04:43:51;28.70;30.40
20610;DHT22;10463;52.378;9.688;2023-08-06T04:46:37;28.70;30.00
20610;DHT22;10463;52.378;9.688;2023-08-06T04:49:21;28.70;30.00
20610;DHT22;10463;52.378;9.688;2023-08-06T04:52:06;28.70;30.00
20610;DHT22;10463;52.378;9.688;2023-08-06T04:54:51;28.70;30.00
20610;DHT22;10463;52.378;9.688;2023-08-06T04:57:37;28.70;30.00
20610;DHT22;10463;52.378;9.688;2023-08-06T05:00:21;28.70;30.00
20610;DHT22;10463;52.378;9.688;2023-08-06T05:03:06;28.70;30.00
20610;DHT22;10463;52.378;9.688;2023-08-06T05:05:51;28.70;30.00
20610;DHT22;10463;52.378;9.688;2023-08-06T05:08:36;28.70;30.10
20610;DHT22;10463;52.378;9.688;2023-08-06T05:11:21;28.60;30.00
20610;DHT22;10463;52.378;9.688;2023-08-06T05:14:07;28.70;30.10
20610;DHT22;10463;52.378;9.688;2023-08-06T05:16:52;28.60;30.00
20610;DHT22;10463;52.378;9.688;2023-08-06T05:19:37;28.60;30.00
20610;DHT22;10463;52.378;9.688;2023-08-06T05:22:21;28.60;30.10
20610;DHT22;10463;52.378;9.688;2023-08-06T05:25:07;28.60;30.10
20610;DHT22;10463;52.378;9.688;2023-08-06T05:27:51;28.60;30.00
20610;DHT22;10463;52.378;9.688;2023-08-06T05:30:41;28.60;30.00
20610;DHT22;10463;52.378;9.688;2023-08-06T05:33:27;28.60;30.00
20610;DHT22;10463;52.378;9.688;2023-08-06T05:36:11;28.60;30.10
20610;DHT22;10463;52.378;9.688;2023-08-06T05:38:56;28.60;30.10
20610;DHT22;10463;52.378;9.688;2023-08-06T05:41:40;28.60;30.10
20610;DHT22;10463;52.378;9.688;2023-08-06T05:44:25;28.60;30.10
20610;DHT22;10463;52.378;9.688;2023-08-06T05:47:11;28.60;30.10
20610;DHT22;10463;52.378;9.688;2023-08-06T05:49:56;28.60;30.80
20610;DHT22;10463;52.378;9.688;2023-08-06T05:52:40;28.60;30.10
20610;DHT22;10463;52.378;9.688;2023-08-06T05:55:25;28.60;30.10
20610;DHT22;10463;52.378;9.688;2023-08-06T05:58:10;28.60;30.10
20610;DHT22;10463;52.378;9.688;2023-08-06T06:00:55;28.60;30.20
20610;DHT22;10463;52.378;9.688;2023-08-06T06:03:41;28.60;30.10
20610;DHT22;10463;52.378;9.688;2023-08-06T06:06:25;28.60;30.10
20610;DHT22;10463;52.378;9.688;2023-08-06T06:09:10;28.60;30.20
20610;DHT22;10463;52.378;9.688;2023-08-06T06:11:55;28.60;30.20
20610;DHT22;10463;52.378;9.688;2023-08-06T06:14:39;28.60;30.20
20610;DHT22;10463;52.378;9.688;2023-08-06T06:17:24;28.60;30.20
20610;DHT22;10463;52.378;9.688;2023-08-06T06:20:10;28.60;30.20
20610;DHT22;10463;52.378;9.688;2023-08-06T06:22:55;28.60;30.20
20610;DHT22;10463;52.378;9.688;2023-08-06T06:25:42;28.60;30.20
20610;DHT22;10463;52.378;9.688;2023-08-06T06:28:28;28.60;30.20
20610;DHT22;10463;52.378;9.688;2023-08-06T06:31:12;28.60;30.20
20610;DHT22;10463;52.378;9.688;2023-08-06T06:33:57;28.60;30.20
20610;DHT22;10463;52.378;9.688;2023-08-06T06:36:43;28.50;30.10
20610;DHT22;10463;52.378;9.688;2023-08-06T06:39:28;28.60;30.20
20610;DHT22;10463;52.378;9.688;2023-08-06T06:42:13;28.60;30.20
20610;DHT22;10463;52.378;9.688;2023-08-06T06:45:04;28.60;30.20
20610;DHT22;10463;52.378;9.688;2023-08-06T06:47:49;28.60;30.20
20610;DHT22;10463;52.378;9.688;2023-08-06T06:50:35;28.60;30.20
20610;DHT22;10463;52.378;9.688;2023-08-06T06:53:22;28.60;30.20
20610;DHT22;10463;52.378;9.688;2023-08-06T06:56:12;28.60;30.20
20610;DHT22;10463;52.378;9.688;2023-08-06T06:58:57;28.60;30.30
20610;DHT22;10463;52.378;9.688;2023-08-06T07:01:42;28.60;30.20
20610;DHT22;10463;52.378;9.688;2023-08-06T07:04:26;28.60;30.30
20610;DHT22;10463;52.378;9.688;2023-08-06T07:07:11;28.60;30.30
20610;DHT22;10463;52.378;9.688;2023-08-06T07:09:57;28.60;30.30
20610;DHT22;10463;52.378;9.688;2023-08-06T07:12:42;28.60;30.30
20610;DHT22;10463;52.378;9.688;2023-08-06T07:15:26;28.60;30.30
20610;DHT22;10463;52.378;9.688;2023-08-06T07:18:11;28.60;30.30
20610;DHT22;10463;52.378;9.688;2023-08-06T07:20:56;28.60;30.30
20610;DHT22;10463;52.378;9.688;2023-08-06T07:23:41;28.60;30.30
20610;DHT22;10463;52.378;9.688;2023-08-06T07:26:27;28.60;30.30
20610;DHT22;10463;52.378;9.688;2023-08-06T07:29:11;28.60;30.30
20610;DHT22;10463;52.378;9.688;2023-08-06T07:31:56;28.50;30.20
20610;DHT22;10463;52.378;9.688;2023-08-06T07:34:40;28.60;30.30
20610;DHT22;10463;52.378;9.688;2023-08-06T07:37:25;28.60;30.30
20610;DHT22;10463;52.378;9.688;2023-08-06T07:40:12;28.50;30.30
20610;DHT22;10463;52.378;9.688;2023-08-06T07:42:59;28.60;30.30
20610;DHT22;10463;52.378;9.688;2023-08-06T07:45:43;28.60;30.40
20610;DHT22;10463;52.378;9.688;2023-08-06T07:48:28;28.60;30.30
20610;DHT22;10463;52.378;9.688;2023-08-06T07:51:13;28.50;30.30
20610;DHT22;10463;52.378;9.688;2023-08-06T07:53:58;28.50;30.30
20610;DHT22;10463;52.378;9.688;2023-08-06T07:56:43;28.50;30.30
20610;DHT22;10463;52.378;9.688;2023-08-06T07:59:28;28.50;30.30
20610;DHT22;10463;52.378;9.688;2023-08-06T08:02:13;28.60;30.40
20610;DHT22;10463;52.378;9.688;2023-08-06T08:04:58;28.50;30.30
20610;DHT22;10463;52.378;9.688;2023-08-06T08:07:42;28.50;30.40
20610;DHT22;10463;52.378;9.688;2023-08-06T08:10:28;28.50;30.40
20610;DHT22;10463;52.378;9.688;2023-08-06T08:13:13;28.50;30.40
20610;DHT22;10463;52.378;9.688;2023-08-06T08:15:59;28.50;30.40
20610;DHT22;10463;52.378;9.688;2023-08-06T08:18:44;28.50;30.40
20610;DHT22;10463;52.378;9.688;2023-08-06T08:21:28;28.50;30.40
20610;DHT22;10463;52.378;9.688;2023-08-06T08:24:13;28.50;30.40
20610;DHT22;10463;52.378;9.688;2023-08-06T08:26:57;28.50;30.40
20610;DHT22;10463;52.378;9.688;2023-08-06T08:29:42;28.50;30.40
20610;DHT22;10463;52.378;9.688;2023-08-06T08:32:29;28.50;30.40
20610;DHT22;10463;52.378;9.688;2023-08-06T08:35:13;28.50;30.50
20610;DHT22;10463;52.378;9.688;2023-08-06T08:38:00;28.50;30.40
20610;DHT22;10463;52.378;9.688;2023-08-06T08:40:46;28.50;30.50
20610;DHT22;10463;52.378;9.688;2023-08-06T08:43:32;28.50;30.50
20610;DHT22;10463;52.378;9.688;2023-08-06T08:46:17;28.60;30.60
20610;DHT22;10463;52.378;9.688;2023-08-06T08:49:04;28.50;30.50
20610;DHT22;10463;52.378;9.688;2023-08-06T08:51:50;28.50;30.50
20610;DHT22;10463;52.378;9.688;2023-08-06T08:54:38;28.50;30.50
20610;DHT22;10463;52.378;9.688;2023-08-06T08:57:23;28.60;30.60
20610;DHT22;10463;52.378;9.688;2023-08-06T09:00:08;28.50;30.60
20610;DHT22;10463;52.378;9.688;2023-08-06T09:02:54;28.60;30.60
20610;DHT22;10463;52.378;9.688;2023-08-06T09:05:44;28.60;30.70
20610;DHT22;10463;52.378;9.688;2023-08-06T09:08:35;28.60;30.70
20610;DHT22;10463;52.378;9.688;2023-08-06T09:11:21;28.60;30.70
20610;DHT22;10463;52.378;9.688;2023-08-06T09:14:06;28.60;30.70
20610;DHT22;10463;52.378;9.688;2023-08-06T09:16:52;28.60;30.70
20610;DHT22;10463;52.378;9.688;2023-08-06T09:19:39;28.60;30.70
20610;DHT22;10463;52.378;9.688;2023-08-06T09:22:35;28.60;30.70
20610;DHT22;10463;52.378;9.688;2023-08-06T09:25:22;28.60;30.80
20610;DHT22;10463;52.378;9.688;2023-08-06T09:28:09;28.60;30.70
20610;DHT22;10463;52.378;9.688;2023-08-06T09:30:53;28.60;30.70
20610;DHT22;10463;52.378;9.688;2023-08-06T09:33:40;28.60;30.80
20610;DHT22;10463;52.378;9.688;2023-08-06T09:36:25;28.60;30.80
20610;DHT22;10463;52.378;9.688;2023-08-06T09:39:15;28.60;30.80
20610;DHT22;10463;52.378;9.688;2023-08-06T09:42:01;28.60;30.80
20610;DHT22;10463;52.378;9.688;2023-08-06T09:44:46;28.60;30.80
20610;DHT22;10463;52.378;9.688;2023-08-06T09:47:31;28.60;30.80
20610;DHT22;10463;52.378;9.688;2023-08-06T09:50:17;28.60;30.80
20610;DHT22;10463;52.378;9.688;2023-08-06T09:53:04;28.60;30.80
20610;DHT22;10463;52.378;9.688;2023-08-06T09:55:50;28.60;30.80
20610;DHT22;10463;52.378;9.688;2023-08-06T09:58:37;28.60;30.80
20610;DHT22;10463;52.378;9.688;2023-08-06T10:01:23;28.60;30.80
20610;DHT22;10463;52.378;9.688;2023-08-06T10:04:07;28.70;30.80
20610;DHT22;10463;52.378;9.688;2023-08-06T10:06:53;28.60;30.80
20610;DHT22;10463;52.378;9.688;2023-08-06T10:09:38;28.70;31.50
20610;DHT22;10463;52.378;9.688;2023-08-06T10:12:24;28.70;30.80
20610;DHT22;10463;52.378;9.688;2023-08-06T10:15:14;28.70;30.80
20610;DHT22;10463;52.378;9.688;2023-08-06T10:18:00;28.70;30.80
20610;DHT22;10463;52.378;9.688;2023-08-06T10:20:46;28.70;30.80
20610;DHT22;10463;52.378;9.688;2023-08-06T10:23:34;28.70;30.80
20610;DHT22;10463;52.378;9.688;2023-08-06T10:26:20;28.70;30.90
20610;DHT22;10463;52.378;9.688;2023-08-06T10:29:37;28.70;30.80
20610;DHT22;10463;52.378;9.688;2023-08-06T10:32:22;28.70;30.80
20610;DHT22;10463;52.378;9.688;2023-08-06T10:35:35;28.70;30.80
20610;DHT22;10463;52.378;9.688;2023-08-06T10:38:21;28.70;30.90
20610;DHT22;10463;52.378;9.688;2023-08-06T10:41:07;28.70;30.80
20610;DHT22;10463;52.378;9.688;2023-08-06T10:43:51;28.70;30.80
20610;DHT22;10463;52.378;9.688;2023-08-06T10:46:37;28.70;30.80
20610;DHT22;10463;52.378;9.688;2023-08-06T10:49:22;28.70;30.80
20610;DHT22;10463;52.378;9.688;2023-08-06T10:52:08;28.80;30.80
20610;DHT22;10463;52.378;9.688;2023-08-06T10:54:55;28.80;30.90
20610;DHT22;10463;52.378;9.688;2023-08-06T10:57:39;28.80;30.80
20610;DHT22;10463;52.378;9.688;2023-08-06T11:00:25;28.80;30.80
20610;DHT22;10463;52.378;9.688;2023-08-06T11:03:09;28.80;30.80
20610;DHT22;10463;52.378;9.688;2023-08-06T11:05:54;28.80;30.80
20610;DHT22;10463;52.378;9.688;2023-08-06T11:08:47;28.80;30.80
20610;DHT22;10463;52.378;9.688;2023-08-06T11:11:32;28.80;30.80
20610;DHT22;10463;52.378;9.688;2023-08-06T11:14:17;28.80;30.80
20610;DHT22;10463;52.378;9.688;2023-08-06T11:17:02;28.80;30.80
20610;DHT22;10463;52.378;9.688;2023-08-06T11:19:47;28.80;30.80
20610;DHT22;10463;52.378;9.688;2023-08-06T11:22:32;28.80;30.80
20610;DHT22;10463;52.378;9.688;2023-08-06T11:25:20;28.80;30.70
20610;DHT22;10463;52.378;9.688;2023-08-06T11:28:06;28.90;30.80
20610;DHT22;10463;52.378;9.688;2023-08-06T11:30:51;28.90;30.80
20610;DHT22;10463;52.378;9.688;2023-08-06T11:33:36;28.90;30.80
20610;DHT22;10463;52.378;9.688;2023-08-06T11:36:31;28.90;30.80
20610;DHT22;10463;52.378;9.688;2023-08-06T11:39:16;28.90;31.50
20610;DHT22;10463;52.378;9.688;2023-08-06T11:42:04;28.90;31.00
20610;DHT22;10463;52.378;9.688;2023-08-06T11:44:50;28.90;30.60
20610;DHT22;10463;52.378;9.688;2023-08-06T11:47:36;28.90;30.60
20610;DHT22;10463;52.378;9.688;2023-08-06T11:50:23;28.90;30.50
20610;DHT22;10463;52.378;9.688;2023-08-06T11:53:13;29.00;31.10
20610;DHT22;10463;52.378;9.688;2023-08-06T11:56:00;29.00;30.40
20610;DHT22;10463;52.378;9.688;2023-08-06T11:58:46;29.00;30.30
20610;DHT22;10463;52.378;9.688;2023-08-06T12:01:31;29.00;30.20
20610;DHT22;10463;52.378;9.688;2023-08-06T12:04:16;29.00;30.20
20610;DHT22;10463;52.378;9.688;2023-08-06T12:07:07;29.00;30.20
20610;DHT22;10463;52.378;9.688;2023-08-06T12:09:54;29.00;30.10
20610;DHT22;10463;52.378;9.688;2023-08-06T12:12:39;29.00;30.00
20610;DHT22;10463;52.378;9.688;2023-08-06T12:15:25;29.00;30.00
20610;DHT22;10463;52.378;9.688;2023-08-06T12:18:10;29.00;29.90
20610;DHT22;10463;52.378;9.688;2023-08-06T12:20:55;29.00;29.90
20610;DHT22;10463;52.378;9.688;2023-08-06T12:23:39;29.00;29.70
20610;DHT22;10463;52.378;9.688;2023-08-06T12:26:24;29.00;29.70
20610;DHT22;10463;52.378;9.688;2023-08-06T12:29:09;29.00;29.70
20610;DHT22;10463;52.378;9.688;2023-08-06T12:31:55;29.00;29.70
20610;DHT22;10463;52.378;9.688;2023-08-06T12:34:40;29.00;29.70
20610;DHT22;10463;52.378;9.688;2023-08-06T12:37:25;29.00;29.60
20610;DHT22;10463;52.378;9.688;2023-08-06T12:40:10;29.00;29.60
20610;DHT22;10463;52.378;9.688;2023-08-06T12:42:55;29.00;29.50
20610;DHT22;10463;52.378;9.688;2023-08-06T12:45:39;29.00;29.40
20610;DHT22;10463;52.378;9.688;2023-08-06T12:48:25;29.00;29.40
20610;DHT22;10463;52.378;9.688;2023-08-06T12:51:10;29.00;29.40
20610;DHT22;10463;52.378;9.688;2023-08-06T12:53:55;29.00;29.30
20610;DHT22;10463;52.378;9.688;2023-08-06T12:56:40;29.00;29.30
20610;DHT22;10463;52.378;9.688;2023-08-06T12:59:24;29.00;29.30
20610;DHT22;10463;52.378;9.688;2023-08-06T13:02:09;29.00;29.40
20610;DHT22;10463;52.378;9.688;2023-08-06T13:04:55;29.00;29.40
20610;DHT22;10463;52.378;9.688;2023-08-06T13:07:40;29.00;29.50
20610;DHT22;10463;52.378;9.688;2023-08-06T13:10:24;29.00;29.50
20610;DHT22;10463;52.378;9.688;2023-08-06T13:13:10;29.00;29.60
20610;DHT22;10463;52.378;9.688;2023-08-06T13:15:55;29.10;29.60
20610;DHT22;10463;52.378;9.688;2023-08-06T13:18:39;29.10;29.60
20610;DHT22;10463;52.378;9.688;2023-08-06T13:21:34;29.10;29.60
20610;DHT22;10463;52.378;9.688;2023-08-06T13:24:19;29.10;29.70
20610;DHT22;10463;52.378;9.688;2023-08-06T13:27:04;29.10;29.60
20610;DHT22;10463;52.378;9.688;2023-08-06T13:29:50;29.10;29.60
20610;DHT22;10463;52.378;9.688;2023-08-06T13:32:35;29.10;29.70
20610;DHT22;10463;52.378;9.688;2023-08-06T13:35:21;29.10;29.60
20610;DHT22;10463;52.378;9.688;2023-08-06T13:38:08;29.10;29.60
20610;DHT22;10463;52.378;9.688;2023-08-06T13:40:52;29.10;29.60
20610;DHT22;10463;52.378;9.688;2023-08-06T13:43:37;29.10;29.70
20610;DHT22;10463;52.378;9.688;2023-08-06T13:46:22;29.10;29.70
20610;DHT22;10463;52.378;9.688;2023-08-06T13:49:06;29.10;29.70
20610;DHT22;10463;52.378;9.688;2023-08-06T13:51:51;29.10;29.70
20610;DHT22;10463;52.378;9.688;2023-08-06T13:54:37;29.20;29.80
20610;DHT22;10463;52.378;9.688;2023-08-06T13:57:22;29.20;29.80
20610;DHT22;10463;52.378;9.688;2023-08-06T14:00:08;29.20;29.80
20610;DHT22;10463;52.378;9.688;2023-08-06T14:03:00;29.20;29.70
20610;DHT22;10463;52.378;9.688;2023-08-06T14:05:45;29.20;30.20
20610;DHT22;10463;52.378;9.688;2023-08-06T14:08:29;29.20;29.70
20610;DHT22;10463;52.378;9.688;2023-08-06T14:11:15;29.20;29.70
20610;DHT22;10463;52.378;9.688;2023-08-06T14:14:00;29.20;29.70
20610;DHT22;10463;52.378;9.688;2023-08-06T14:16:45;29.20;29.70
20610;DHT22;10463;52.378;9.688;2023-08-06T14:19:30;29.20;30.20
20610;DHT22;10463;52.378;9.688;2023-08-06T14:22:15;29.20;29.70
20610;DHT22;10463;52.378;9.688;2023-08-06T14:24:59;29.30;29.70
20610;DHT22;10463;52.378;9.688;2023-08-06T14:27:46;29.30;29.70
20610;DHT22;10463;52.378;9.688;2023-08-06T14:30:30;29.30;29.70
20610;DHT22;10463;52.378;9.688;2023-08-06T14:33:15;29.30;29.70
20610;DHT22;10463;52.378;9.688;2023-08-06T14:35:59;29.30;29.70
20610;DHT22;10463;52.378;9.688;2023-08-06T14:38:44;29.30;29.70
20610;DHT22;10463;52.378;9.688;2023-08-06T14:41:29;29.30;29.80
20610;DHT22;10463;52.378;9.688;2023-08-06T14:44:15;29.30;29.80
20610;DHT22;10463;52.378;9.688;2023-08-06T14:47:00;29.30;29.80
20610;DHT22;10463;52.378;9.688;2023-08-06T14:49:44;29.30;29.80
20610;DHT22;10463;52.378;9.688;2023-08-06T14:52:29;29.30;29.80
20610;DHT22;10463;52.378;9.688;2023-08-06T14:55:23;29.30;29.80
20610;DHT22;10463;52.378;9.688;2023-08-06T14:58:08;29.30;29.80
20610;DHT22;10463;52.378;9.688;2023-08-06T15:00:55;29.30;29.90
20610;DHT22;10463;52.378;9.688;2023-08-06T15:03:39;29.30;29.90
20610;DHT22;10463;52.378;9.688;2023-08-06T15:06:24;29.30;29.90
20610;DHT22;10463;52.378;9.688;2023-08-06T15:09:08;29.30;29.80
20610;DHT22;10463;52.378;9.688;2023-08-06T15:11:53;29.30;30.30
20610;DHT22;10463;52.378;9.688;2023-08-06T15:14:38;29.30;29.90
20610;DHT22;10463;52.378;9.688;2023-08-06T15:17:24;29.40;29.90
20610;DHT22;10463;52.378;9.688;2023-08-06T15:20:12;29.30;29.90
20610;DHT22;10463;52.378;9.688;2023-08-06T15:22:56;29.30;29.90
20610;DHT22;10463;52.378;9.688;2023-08-06T15:25:42;29.40;29.90
20610;DHT22;10463;52.378;9.688;2023-08-06T15:28:27;29.40;29.90
20610;DHT22;10463;52.378;9.688;2023-08-06T15:31:11;29.30;29.90
20610;DHT22;10463;52.378;9.688;2023-08-06T15:33:57;29.40;30.00
20610;DHT22;10463;52.378;9.688;2023-08-06T15:36:42;29.40;30.00
20610;DHT22;10463;52.378;9.688;2023-08-06T15:39:27;29.40;30.00
20610;DHT22;10463;52.378;9.688;2023-08-06T15:42:11;29.40;30.00
20610;DHT22;10463;52.378;9.688;2023-08-06T15:44:57;29.40;30.00
20610;DHT22;10463;52.378;9.688;2023-08-06T15:47:41;29.40;30.00
20610;DHT22;10463;52.378;9.688;2023-08-06T15:50:28;29.40;30.00
20610;DHT22;10463;52.378;9.688;2023-08-06T15:53:13;29.40;30.00
20610;DHT22;10463;52.378;9.688;2023-08-06T15:55:58;29.40;30.00
20610;DHT22;10463;52.378;9.688;2023-08-06T15:58:42;29.40;30.00
20610;DHT22;10463;52.378;9.688;2023-08-06T16:01:27;29.40;30.00
20610;DHT22;10463;52.378;9.688;2023-08-06T16:04:12;29.40;30.00
20610;DHT22;10463;52.378;9.688;2023-08-06T16:06:58;29.40;30.00
20610;DHT22;10463;52.378;9.688;2023-08-06T16:09:43;29.40;30.00
20610;DHT22;10463;52.378;9.688;2023-08-06T16:12:27;29.40;30.00
20610;DHT22;10463;52.378;9.688;2023-08-06T16:15:13;29.50;30.10
20610;DHT22;10463;52.378;9.688;2023-08-06T16:18:03;29.40;30.00
20610;DHT22;10463;52.378;9.688;2023-08-06T16:20:48;29.40;30.00
20610;DHT22;10463;52.378;9.688;2023-08-06T16:23:34;29.40;30.00
20610;DHT22;10463;52.378;9.688;2023-08-06T16:26:19;29.40;30.10
20610;DHT22;10463;52.378;9.688;2023-08-06T16:29:03;29.50;30.20
20610;DHT22;10463;52.378;9.688;2023-08-06T16:31:48;29.50;30.20
20610;DHT22;10463;52.378;9.688;2023-08-06T16:34:33;29.50;30.20
20610;DHT22;10463;52.378;9.688;2023-08-06T16:37:18;29.50;30.20
20610;DHT22;10463;52.378;9.688;2023-08-06T16:40:05;29.50;31.00
20610;DHT22;10463;52.378;9.688;2023-08-06T16:42:51;29.50;30.20
20610;DHT22;10463;52.378;9.688;2023-08-06T16:45:36;29.50;30.20
20610;DHT22;10463;52.378;9.688;2023-08-06T16:48:22;29.50;30.20
20610;DHT22;10463;52.378;9.688;2023-08-06T16:51:14;29.50;30.20
20610;DHT22;10463;52.378;9.688;2023-08-06T16:54:00;29.50;30.20
20610;DHT22;10463;52.378;9.688;2023-08-06T16:56:47;29.50;30.20
20610;DHT22;10463;52.378;9.688;2023-08-06T16:59:32;29.50;30.20
20610;DHT22;10463;52.378;9.688;2023-08-06T17:02:16;29.50;30.20
20610;DHT22;10463;52.378;9.688;2023-08-06T17:05:01;29.50;30.20
20610;DHT22;10463;52.378;9.688;2023-08-06T17:07:45;29.50;30.20
20610;DHT22;10463;52.378;9.688;2023-08-06T17:10:35;29.50;30.90
20610;DHT22;10463;52.378;9.688;2023-08-06T17:13:23;29.50;30.20
20610;DHT22;10463;52.378;9.688;2023-08-06T17:16:08;29.50;30.20
20610;DHT22;10463;52.378;9.688;2023-08-06T17:18:52;29.60;30.30
20610;DHT22;10463;52.378;9.688;2023-08-06T17:21:37;29.60;30.30
20610;DHT22;10463;52.378;9.688;2023-08-06T17:24:22;29.50;30.20
20610;DHT22;10463;52.378;9.688;2023-08-06T17:27:07;29.50;30.30